Expo Clipper — WDD8769 — position and weather

sailwx.info

Track history (hours):
 
Tides and Currents Weather Stations Pressure Air Temp Water Temp Dewpoint Dewpoint Depression Visibility Wind Speed Wind Dir Waves Ship Positions

Expo Clipper

Owner: Expoships LLLP, Bonita Springs, FL. More information available from US FCC via Universal Licensing System and Coast Guard Vessel Documentation Center.

Last reported at 2017-Oct-27 21:11 UTC. Time now 2017-Nov-18 06:30 UTC.
Position N 33°44' W 118°16'.
Warning: this ship's position is 21 days out of date.

Length 31 m.

Type: Passenger vessel. MMSI: 367302530.

Date/timePositionNaut miles runAvg speedWind from/ knotsBaromVisibWave heightAir tempDewpointWater temp
2017-Oct-27 21:11N 33°44' W 118°16'0 0.3
2017-Oct-27 21:00N 33°44' W 118°16'2 4.7
2017-Oct-27 20:30N 33°42' W 118°15'4 8.9
2017-Oct-27 20:00N 33°39' W 118°19'6 9.4
2017-Oct-27 19:19N 33°34' W 118°25'4 9.1
2017-Oct-27 18:53N 33°31' W 118°28'4 7.5
2017-Oct-27 18:19N 33°28' W 118°32'0 0.1
2017-Oct-27 18:00N 33°28' W 118°32'0 0.1
2017-Oct-27 17:15N 33°28' W 118°32'0 0.0
2017-Oct-27 16:49N 33°28' W 118°32'0 0.0
2017-Oct-27 16:22N 33°28' W 118°32'0 0.0
2017-Oct-27 15:41N 33°28' W 118°32'0 0.0
2017-Oct-27 15:29N 33°28' W 118°32'0 0.0
2017-Oct-27 14:58N 33°28' W 118°32'0 0.0
2017-Oct-27 14:29N 33°28' W 118°32'0 0.0
2017-Oct-27 13:03N 33°28' W 118°32'0 0.1
2017-Oct-27 13:00N 33°28' W 118°32'0 0.0
2017-Oct-27 12:29N 33°28' W 118°32'0 0.0
2017-Oct-27 11:21N 33°28' W 118°32'0 0.0
2017-Oct-27 11:00N 33°28' W 118°32'0 0.0
2017-Oct-27 10:05N 33°28' W 118°32'0 0.0
2017-Oct-27 09:16N 33°28' W 118°32'0 0.0
2017-Oct-27 08:58N 33°28' W 118°32'0 0.0
2017-Oct-27 08:30N 33°28' W 118°32'0 0.0
2017-Oct-27 07:38N 33°28' W 118°32'0 0.0
2017-Oct-27 07:30N 33°28' W 118°32'0 0.0
2017-Oct-27 07:00N 33°28' W 118°32'0 0.0
2017-Oct-27 06:30N 33°28' W 118°32'0 0.0
2017-Oct-27 05:51N 33°28' W 118°32'0 0.0
2017-Oct-27 05:26N 33°28' W 118°32'0 0.0
2017-Oct-27 03:19N 33°28' W 118°32'0 0.0
2017-Oct-27 02:55N 33°28' W 118°32'0 0.0
2017-Oct-27 02:27N 33°28' W 118°32'0 0.0
2017-Oct-27 01:51N 33°28' W 118°32'0 0.0
2017-Oct-27 01:30N 33°28' W 118°32'0 0.0
2017-Oct-27 00:57N 33°28' W 118°32'0 0.0
2017-Oct-26 23:23N 33°28' W 118°32'0 0.0
2017-Oct-26 22:54N 33°28' W 118°32'0 0.0
2017-Oct-26 22:28N 33°28' W 118°32'0 0.0
2017-Oct-26 21:58N 33°28' W 118°32'0 0.0
2017-Oct-26 18:50N 33°28' W 118°32'0 0.0
2017-Oct-26 17:55N 33°28' W 118°32'0 0.0
2017-Oct-26 14:44N 33°28' W 118°32'0 0.0
2017-Oct-26 14:23N 33°28' W 118°32'0 0.0
2017-Oct-26 13:56N 33°28' W 118°32'0 0.0
2017-Oct-26 13:27N 33°28' W 118°32'0 0.0
2017-Oct-26 12:49N 33°28' W 118°32'0 0.0
2017-Oct-26 12:27N 33°28' W 118°32'0 0.0
2017-Oct-26 12:00N 33°28' W 118°32'0 0.0
2017-Oct-26 11:19N 33°28' W 118°32'0 0.0
2017-Oct-26 11:00N 33°28' W 118°32'0 0.0
2017-Oct-26 10:24N 33°28' W 118°32'0 0.0
2017-Oct-26 09:59N 33°28' W 118°32'0 0.0
2017-Oct-26 09:30N 33°28' W 118°32'0 0.0
2017-Oct-26 09:00N 33°28' W 118°32'0 0.0
2017-Oct-26 08:30N 33°28' W 118°32'0 0.1
2017-Oct-26 08:01N 33°28' W 118°32'0 0.1
2017-Oct-26 07:30N 33°28' W 118°32'0 0.0
2017-Oct-26 07:00N 33°28' W 118°32'0 0.0
2017-Oct-26 06:30N 33°28' W 118°32'0 0.0
2017-Oct-26 06:00N 33°28' W 118°32'0 0.0
2017-Oct-26 04:17N 33°28' W 118°32'0 0.0
2017-Oct-26 02:52N 33°28' W 118°32'0 0.1
2017-Oct-26 02:30N 33°28' W 118°32'0 0.0
2017-Oct-26 01:52N 33°28' W 118°32'0 0.0
2017-Oct-26 01:31N 33°28' W 118°32'0 0.0
2017-Oct-26 00:55N 33°28' W 118°32'15 1.8
2017-Oct-25 16:28N 33°39' W 118°19'4 9.1
2017-Oct-25 16:00N 33°42' W 118°15'2 0.1
2017-Oct-23 23:15N 33°44' W 118°16'0 0.0
2017-Oct-23 23:00N 33°44' W 118°16'0 0.1
2017-Oct-23 22:30N 33°44' W 118°16'3 5.7
2017-Oct-23 22:00N 33°41' W 118°16'510.1
2017-Oct-23 21:30N 33°38' W 118°20'13 1.9
2017-Oct-23 14:33N 33°27' W 118°30'0 0.1
2017-Oct-23 14:26N 33°27' W 118°30'0 0.0
2017-Oct-23 12:36N 33°27' W 118°30'0 0.0
2017-Oct-23 11:47N 33°27' W 118°30'0 0.0
2017-Oct-23 11:03N 33°27' W 118°30'0 0.0
2017-Oct-23 10:57N 33°27' W 118°30'0 0.1
2017-Oct-23 10:30N 33°27' W 118°30'0 0.1
2017-Oct-23 10:00N 33°27' W 118°30'0 0.0
2017-Oct-23 09:30N 33°27' W 118°30'0 0.1
2017-Oct-23 09:00N 33°27' W 118°30'0 0.0
2017-Oct-23 08:30N 33°27' W 118°30'0 0.0
2017-Oct-23 08:00N 33°27' W 118°30'0 0.0
2017-Oct-23 07:30N 33°27' W 118°30'0 0.0
2017-Oct-23 07:00N 33°27' W 118°30'0 0.0
2017-Oct-23 06:30N 33°27' W 118°30'0 0.0
2017-Oct-23 06:00N 33°27' W 118°30'0 0.1
2017-Oct-23 05:29N 33°27' W 118°30'0 0.1
2017-Oct-23 04:59N 33°27' W 118°30'0 0.0
2017-Oct-23 04:08N 33°27' W 118°30'0 0.0
2017-Oct-23 04:00N 33°27' W 118°30'0 0.0
2017-Oct-23 03:30N 33°27' W 118°30'0 0.0
2017-Oct-23 02:48N 33°27' W 118°30'0 0.1
2017-Oct-23 02:28N 33°27' W 118°30'0 0.0
2017-Oct-22 22:40N 33°27' W 118°30'0 0.0
2017-Oct-22 18:27N 33°27' W 118°30'0 0.0
2017-Oct-22 18:00N 33°27' W 118°30'0 0.0
2017-Oct-22 17:29N 33°27' W 118°30'0 0.0
2017-Oct-22 17:00N 33°27' W 118°30'0 0.0
2017-Oct-22 16:30N 33°27' W 118°30'0 0.1
2017-Oct-22 15:58N 33°27' W 118°30'0 0.1
2017-Oct-22 15:07N 33°27' W 118°30'0 0.0
2017-Oct-22 12:20N 33°27' W 118°30'0 0.0
2017-Oct-22 12:00N 33°27' W 118°30'0 0.0
2017-Oct-22 11:28N 33°27' W 118°30'0 0.0
2017-Oct-22 10:56N 33°27' W 118°30'0 0.0
2017-Oct-22 09:37N 33°27' W 118°30'0 0.0
2017-Oct-22 09:20N 33°27' W 118°30'0 0.0
2017-Oct-22 09:00N 33°27' W 118°30'0 0.0
2017-Oct-22 08:30N 33°27' W 118°30'0 0.0
2017-Oct-22 08:00N 33°27' W 118°30'0 0.0
2017-Oct-22 07:30N 33°27' W 118°30'0 0.0
2017-Oct-22 07:00N 33°27' W 118°30'0 0.0
2017-Oct-22 06:30N 33°27' W 118°30'0 0.0
2017-Oct-22 05:58N 33°27' W 118°30'0 0.0
2017-Oct-22 05:30N 33°27' W 118°30'0 0.0
2017-Oct-22 04:54N 33°27' W 118°30'0 0.0
2017-Oct-22 04:30N 33°27' W 118°30'0 0.0
2017-Oct-22 03:54N 33°27' W 118°30'0 0.1
2017-Oct-22 03:30N 33°27' W 118°30'0 0.1
2017-Oct-21 23:58N 33°27' W 118°30'5 8.8
2017-Oct-21 23:21N 33°32' W 118°26'4 9.2
2017-Oct-21 22:55N 33°34' W 118°22'4 9.3
2017-Oct-21 22:30N 33°37' W 118°19'5 9.3
2017-Oct-21 22:00N 33°41' W 118°16'3 6.5
2017-Oct-21 21:30N 33°44' W 118°16'0 0.0
2017-Oct-19 21:47N 33°44' W 118°16'0 0.0
2017-Oct-19 21:30N 33°44' W 118°16'0 0.0
2017-Oct-19 21:00N 33°44' W 118°16'3 5.3
2017-Oct-19 20:30N 33°42' W 118°15'17 4.7
2017-Oct-19 16:56N 33°30' W 118°30'8 9.7
2017-Oct-19 16:05N 33°36' W 118°23'1 9.9
2017-Oct-19 16:00N 33°36' W 118°22'5 9.5
2017-Oct-19 15:30N 33°39' W 118°18'4 7.9
2017-Oct-19 14:59N 33°43' W 118°15'1 0.0
2017-Oct-17 23:46N 33°44' W 118°16'0 0.0
2017-Oct-17 23:30N 33°44' W 118°16'0 0.1
2017-Oct-17 22:59N 33°44' W 118°16'3 5.3
2017-Oct-17 22:30N 33°42' W 118°15'7 8.2
2017-Oct-17 21:40N 33°37' W 118°21'2 8.4
2017-Oct-17 21:25N 33°35' W 118°23'  
Track history (hours):
 
Tides and Currents Weather Stations Pressure Air Temp Water Temp Dewpoint Dewpoint Depression Visibility Wind Speed Wind Dir Waves Ship Positions

Expo Clipper

Owner: Expoships LLLP, Bonita Springs, FL. More information available from US FCC via Universal Licensing System and Coast Guard Vessel Documentation Center.

Last reported at 2017-Oct-27 21:11 UTC. Time now 2017-Nov-18 06:30 UTC.
Position N 33°44' W 118°16'.
Warning: this ship's position is 21 days out of date.

Length 31 m.

Type: Passenger vessel. MMSI: 367302530.

Date/timePositionNaut miles runAvg speedWind from/ knotsBaromVisibWave heightAir tempDewpointWater temp
2017-Oct-27 21:11N 33°44' W 118°16'0 0.3
2017-Oct-27 21:00N 33°44' W 118°16'2 4.7
2017-Oct-27 20:30N 33°42' W 118°15'4 8.9
2017-Oct-27 20:00N 33°39' W 118°19'6 9.4
2017-Oct-27 19:19N 33°34' W 118°25'4 9.1
2017-Oct-27 18:53N 33°31' W 118°28'4 7.5
2017-Oct-27 18:19N 33°28' W 118°32'0 0.1
2017-Oct-27 18:00N 33°28' W 118°32'0 0.1
2017-Oct-27 17:15N 33°28' W 118°32'0 0.0
2017-Oct-27 16:49N 33°28' W 118°32'0 0.0
2017-Oct-27 16:22N 33°28' W 118°32'0 0.0
2017-Oct-27 15:41N 33°28' W 118°32'0 0.0
2017-Oct-27 15:29N 33°28' W 118°32'0 0.0
2017-Oct-27 14:58N 33°28' W 118°32'0 0.0
2017-Oct-27 14:29N 33°28' W 118°32'0 0.0
2017-Oct-27 13:03N 33°28' W 118°32'0 0.1
2017-Oct-27 13:00N 33°28' W 118°32'0 0.0
2017-Oct-27 12:29N 33°28' W 118°32'0 0.0
2017-Oct-27 11:21N 33°28' W 118°32'0 0.0
2017-Oct-27 11:00N 33°28' W 118°32'0 0.0
2017-Oct-27 10:05N 33°28' W 118°32'0 0.0
2017-Oct-27 09:16N 33°28' W 118°32'0 0.0
2017-Oct-27 08:58N 33°28' W 118°32'0 0.0
2017-Oct-27 08:30N 33°28' W 118°32'0 0.0
2017-Oct-27 07:38N 33°28' W 118°32'0 0.0
2017-Oct-27 07:30N 33°28' W 118°32'0 0.0
2017-Oct-27 07:00N 33°28' W 118°32'0 0.0
2017-Oct-27 06:30N 33°28' W 118°32'0 0.0
2017-Oct-27 05:51N 33°28' W 118°32'0 0.0
2017-Oct-27 05:26N 33°28' W 118°32'0 0.0
2017-Oct-27 03:19N 33°28' W 118°32'0 0.0
2017-Oct-27 02:55N 33°28' W 118°32'0 0.0
2017-Oct-27 02:27N 33°28' W 118°32'0 0.0
2017-Oct-27 01:51N 33°28' W 118°32'0 0.0
2017-Oct-27 01:30N 33°28' W 118°32'0 0.0
2017-Oct-27 00:57N 33°28' W 118°32'0 0.0
2017-Oct-26 23:23N 33°28' W 118°32'0 0.0
2017-Oct-26 22:54N 33°28' W 118°32'0 0.0
2017-Oct-26 22:28N 33°28' W 118°32'0 0.0
2017-Oct-26 21:58N 33°28' W 118°32'0 0.0
2017-Oct-26 18:50N 33°28' W 118°32'0 0.0
2017-Oct-26 17:55N 33°28' W 118°32'0 0.0
2017-Oct-26 14:44N 33°28' W 118°32'0 0.0
2017-Oct-26 14:23N 33°28' W 118°32'0 0.0
2017-Oct-26 13:56N 33°28' W 118°32'0 0.0
2017-Oct-26 13:27N 33°28' W 118°32'0 0.0
2017-Oct-26 12:49N 33°28' W 118°32'0 0.0
2017-Oct-26 12:27N 33°28' W 118°32'0 0.0
2017-Oct-26 12:00N 33°28' W 118°32'0 0.0
2017-Oct-26 11:19N 33°28' W 118°32'0 0.0
2017-Oct-26 11:00N 33°28' W 118°32'0 0.0
2017-Oct-26 10:24N 33°28' W 118°32'0 0.0
2017-Oct-26 09:59N 33°28' W 118°32'0 0.0
2017-Oct-26 09:30N 33°28' W 118°32'0 0.0
2017-Oct-26 09:00N 33°28' W 118°32'0 0.0
2017-Oct-26 08:30N 33°28' W 118°32'0 0.1
2017-Oct-26 08:01N 33°28' W 118°32'0 0.1
2017-Oct-26 07:30N 33°28' W 118°32'0 0.0
2017-Oct-26 07:00N 33°28' W 118°32'0 0.0
2017-Oct-26 06:30N 33°28' W 118°32'0 0.0
2017-Oct-26 06:00N 33°28' W 118°32'0 0.0
2017-Oct-26 04:17N 33°28' W 118°32'0 0.0
2017-Oct-26 02:52N 33°28' W 118°32'0 0.1
2017-Oct-26 02:30N 33°28' W 118°32'0 0.0
2017-Oct-26 01:52N 33°28' W 118°32'0 0.0
2017-Oct-26 01:31N 33°28' W 118°32'0 0.0
2017-Oct-26 00:55N 33°28' W 118°32'15 1.8
2017-Oct-25 16:28N 33°39' W 118°19'4 9.1
2017-Oct-25 16:00N 33°42' W 118°15'2 0.1
2017-Oct-23 23:15N 33°44' W 118°16'0 0.0
2017-Oct-23 23:00N 33°44' W 118°16'0 0.1
2017-Oct-23 22:30N 33°44' W 118°16'3 5.7
2017-Oct-23 22:00N 33°41' W 118°16'510.1
2017-Oct-23 21:30N 33°38' W 118°20'13 1.9
2017-Oct-23 14:33N 33°27' W 118°30'0 0.1
2017-Oct-23 14:26N 33°27' W 118°30'0 0.0
2017-Oct-23 12:36N 33°27' W 118°30'0 0.0
2017-Oct-23 11:47N 33°27' W 118°30'0 0.0
2017-Oct-23 11:03N 33°27' W 118°30'0 0.0
2017-Oct-23 10:57N 33°27' W 118°30'0 0.1
2017-Oct-23 10:30N 33°27' W 118°30'0 0.1
2017-Oct-23 10:00N 33°27' W 118°30'0 0.0
2017-Oct-23 09:30N 33°27' W 118°30'0 0.1
2017-Oct-23 09:00N 33°27' W 118°30'0 0.0
2017-Oct-23 08:30N 33°27' W 118°30'0 0.0
2017-Oct-23 08:00N 33°27' W 118°30'0 0.0
2017-Oct-23 07:30N 33°27' W 118°30'0 0.0
2017-Oct-23 07:00N 33°27' W 118°30'0 0.0
2017-Oct-23 06:30N 33°27' W 118°30'0 0.0
2017-Oct-23 06:00N 33°27' W 118°30'0 0.1
2017-Oct-23 05:29N 33°27' W 118°30'0 0.1
2017-Oct-23 04:59N 33°27' W 118°30'0 0.0
2017-Oct-23 04:08N 33°27' W 118°30'0 0.0
2017-Oct-23 04:00N 33°27' W 118°30'0 0.0
2017-Oct-23 03:30N 33°27' W 118°30'0 0.0
2017-Oct-23 02:48N 33°27' W 118°30'0 0.1
2017-Oct-23 02:28N 33°27' W 118°30'0 0.0
2017-Oct-22 22:40N 33°27' W 118°30'0 0.0
2017-Oct-22 18:27N 33°27' W 118°30'0 0.0
2017-Oct-22 18:00N 33°27' W 118°30'0 0.0
2017-Oct-22 17:29N 33°27' W 118°30'0 0.0
2017-Oct-22 17:00N 33°27' W 118°30'0 0.0
2017-Oct-22 16:30N 33°27' W 118°30'0 0.1
2017-Oct-22 15:58N 33°27' W 118°30'0 0.1
2017-Oct-22 15:07N 33°27' W 118°30'0 0.0
2017-Oct-22 12:20N 33°27' W 118°30'0 0.0
2017-Oct-22 12:00N 33°27' W 118°30'0 0.0
2017-Oct-22 11:28N 33°27' W 118°30'0 0.0
2017-Oct-22 10:56N 33°27' W 118°30'0 0.0
2017-Oct-22 09:37N 33°27' W 118°30'0 0.0
2017-Oct-22 09:20N 33°27' W 118°30'0 0.0
2017-Oct-22 09:00N 33°27' W 118°30'0 0.0
2017-Oct-22 08:30N 33°27' W 118°30'0 0.0
2017-Oct-22 08:00N 33°27' W 118°30'0 0.0
2017-Oct-22 07:30N 33°27' W 118°30'0 0.0
2017-Oct-22 07:00N 33°27' W 118°30'0 0.0
2017-Oct-22 06:30N 33°27' W 118°30'0 0.0
2017-Oct-22 05:58N 33°27' W 118°30'0 0.0
2017-Oct-22 05:30N 33°27' W 118°30'0 0.0
2017-Oct-22 04:54N 33°27' W 118°30'0 0.0
2017-Oct-22 04:30N 33°27' W 118°30'0 0.0
2017-Oct-22 03:54N 33°27' W 118°30'0 0.1
2017-Oct-22 03:30N 33°27' W 118°30'0 0.1
2017-Oct-21 23:58N 33°27' W 118°30'5 8.8
2017-Oct-21 23:21N 33°32' W 118°26'4 9.2
2017-Oct-21 22:55N 33°34' W 118°22'4 9.3
2017-Oct-21 22:30N 33°37' W 118°19'5 9.3
2017-Oct-21 22:00N 33°41' W 118°16'3 6.5
2017-Oct-21 21:30N 33°44' W 118°16'0 0.0
2017-Oct-19 21:47N 33°44' W 118°16'0 0.0
2017-Oct-19 21:30N 33°44' W 118°16'0 0.0
2017-Oct-19 21:00N 33°44' W 118°16'3 5.3
2017-Oct-19 20:30N 33°42' W 118°15'17 4.7
2017-Oct-19 16:56N 33°30' W 118°30'8 9.7
2017-Oct-19 16:05N 33°36' W 118°23'1 9.9
2017-Oct-19 16:00N 33°36' W 118°22'5 9.5
2017-Oct-19 15:30N 33°39' W 118°18'4 7.9
2017-Oct-19 14:59N 33°43' W 118°15'1 0.0
2017-Oct-17 23:46N 33°44' W 118°16'0 0.0
2017-Oct-17 23:30N 33°44' W 118°16'0 0.1
2017-Oct-17 22:59N 33°44' W 118°16'3 5.3
2017-Oct-17 22:30N 33°42' W 118°15'7 8.2
2017-Oct-17 21:40N 33°37' W 118°21'2 8.4
2017-Oct-17 21:25N 33°35' W 118°23'  

Dump ship's entire track history